Terminal Aerodrome Forecast
Issued by NWS

Home | Current Version | Previous Version | Text Only | Print | Product List | Glossary On
Versions: 1 2 3 4 5 6 7 8 9 10 11 12 13 14 15
000
FTUS44 KLZK 031130
TAFLIT
TAF
KLIT 031130Z 0312/0412 06008KT P6SM VCSH OVC080
     FM031700 07006KT 5SM -RA BR BKN025
     FM032300 08011KT 1SM -RA BR OVC007=

USA.gov is the U.S. government's official web portal to all federal, state and local government web resources and services.